createdAt,value
2018-08-20T00:01:25.325Z,13.70
2018-08-20T00:03:53.977Z,13.60
2018-08-20T00:06:22.526Z,13.60
2018-08-20T00:08:51.069Z,13.60
2018-08-20T00:11:20.357Z,13.60
2018-08-20T00:13:49.099Z,13.70
2018-08-20T00:16:17.719Z,13.70
2018-08-20T00:18:47.027Z,13.60
2018-08-20T00:21:15.647Z,13.60
2018-08-20T00:23:44.364Z,13.50
2018-08-20T00:26:13.060Z,13.30
2018-08-20T00:28:41.526Z,13.30
2018-08-20T00:31:10.156Z,13.30
2018-08-20T00:33:38.684Z,13.40
2018-08-20T00:36:07.750Z,13.40
2018-08-20T00:38:36.284Z,13.50
2018-08-20T00:41:05.124Z,13.50
2018-08-20T00:43:33.649Z,13.40
2018-08-20T00:46:02.466Z,13.40
2018-08-20T00:48:31.708Z,13.30
2018-08-20T00:51:00.343Z,13.30
2018-08-20T00:53:29.445Z,13.30
2018-08-20T00:55:58.113Z,13.20
2018-08-20T00:58:27.401Z,13.30
2018-08-20T01:00:55.980Z,13.30
2018-08-20T01:03:24.673Z,13.20
2018-08-20T01:05:53.167Z,13.30
2018-08-20T01:08:21.688Z,13.30
2018-08-20T01:10:50.236Z,13.30
2018-08-20T01:13:18.815Z,13.30
2018-08-20T01:15:47.312Z,13.20
2018-08-20T01:18:16.456Z,13.30
2018-08-20T01:20:44.957Z,13.20
2018-08-20T01:23:13.458Z,13.10
2018-08-20T01:25:42.019Z,13.10
2018-08-20T01:28:11.160Z,13.00
2018-08-20T01:30:39.755Z,12.90
2018-08-20T01:33:18.138Z,12.90
2018-08-20T01:35:47.058Z,13.00
2018-08-20T01:38:15.805Z,13.00
2018-08-20T01:40:44.499Z,13.00
2018-08-20T01:43:13.738Z,12.80
2018-08-20T01:45:42.314Z,12.80
2018-08-20T01:48:10.846Z,12.80
2018-08-20T01:50:39.522Z,12.80
2018-08-20T01:53:08.394Z,12.80
2018-08-20T01:55:36.957Z,12.80
2018-08-20T01:58:05.708Z,12.70
2018-08-20T02:00:34.752Z,12.70
2018-08-20T02:03:04.547Z,12.70
2018-08-20T02:05:33.297Z,12.70
2018-08-20T02:08:02.251Z,12.70
2018-08-20T02:10:31.244Z,12.80
2018-08-20T02:12:59.765Z,12.60
2018-08-20T02:15:28.653Z,12.60
2018-08-20T02:17:57.280Z,12.60
2018-08-20T02:20:25.815Z,12.60
2018-08-20T02:22:54.960Z,12.60
2018-08-20T02:25:23.688Z,12.50
2018-08-20T02:27:52.244Z,12.40
2018-08-20T02:30:20.910Z,12.30
2018-08-20T02:32:49.416Z,12.30
2018-08-20T02:35:17.908Z,12.30
2018-08-20T02:37:47.895Z,12.30
2018-08-20T02:40:17.796Z,12.30
2018-08-20T02:42:46.722Z,12.20
2018-08-20T02:45:17.355Z,12.20
2018-08-20T02:47:46.952Z,12.20
2018-08-20T02:50:16.008Z,12.20
2018-08-20T02:52:45.369Z,12.20
2018-08-20T02:55:14.419Z,12.10
2018-08-20T02:57:43.457Z,12.10
2018-08-20T03:00:13.727Z,12.10
2018-08-20T03:02:43.020Z,12.00
2018-08-20T03:05:12.532Z,11.90
2018-08-20T03:07:41.032Z,11.90
2018-08-20T03:10:11.775Z,11.90
2018-08-20T03:12:40.630Z,11.80
2018-08-20T03:15:10.351Z,11.80
2018-08-20T03:17:38.885Z,11.80
2018-08-20T03:20:07.920Z,11.80
2018-08-20T03:22:36.749Z,11.80
2018-08-20T03:25:06.327Z,11.80
2018-08-20T03:27:34.783Z,11.80
2018-08-20T03:30:03.536Z,11.70
2018-08-20T03:32:32.256Z,11.80
2018-08-20T03:35:01.306Z,11.80
2018-08-20T03:37:29.980Z,11.80
2018-08-20T03:39:59.456Z,11.80
2018-08-20T03:42:27.972Z,11.90
2018-08-20T03:44:56.592Z,11.80
2018-08-20T03:47:25.093Z,11.70
2018-08-20T03:49:54.348Z,11.60
2018-08-20T03:52:22.871Z,11.60
2018-08-20T03:54:52.132Z,11.60
2018-08-20T03:57:21.255Z,11.50
2018-08-20T03:59:49.927Z,11.50
2018-08-20T04:02:19.652Z,11.50
2018-08-20T04:04:48.405Z,11.50
2018-08-20T04:07:17.033Z,11.50
2018-08-20T04:09:45.931Z,11.50
2018-08-20T04:12:14.473Z,11.40
2018-08-20T04:14:43.222Z,11.30
2018-08-20T04:17:11.898Z,11.40
2018-08-20T04:19:40.420Z,11.40
2018-08-20T04:22:09.164Z,11.30
2018-08-20T04:24:38.288Z,11.30
2018-08-20T04:27:06.919Z,11.30
2018-08-20T04:29:35.368Z,11.30
2018-08-20T04:32:04.007Z,11.40
2018-08-20T04:34:32.595Z,11.30
2018-08-20T04:37:01.163Z,11.20
2018-08-20T04:39:29.680Z,11.20
2018-08-20T04:41:58.149Z,11.30
2018-08-20T04:44:27.517Z,11.20
2018-08-20T04:46:56.025Z,11.30
2018-08-20T04:49:25.167Z,11.30
2018-08-20T04:51:53.789Z,11.30
2018-08-20T04:54:23.463Z,11.30
2018-08-20T04:56:52.852Z,11.40
2018-08-20T04:59:22.051Z,11.40
2018-08-20T05:01:50.705Z,11.40
2018-08-20T05:04:19.287Z,11.40
2018-08-20T05:06:48.692Z,11.40
2018-08-20T05:09:17.519Z,11.50
2018-08-20T05:11:46.092Z,11.50
2018-08-20T05:14:14.593Z,11.50
2018-08-20T05:16:43.056Z,11.60
2018-08-20T05:19:11.976Z,11.60
2018-08-20T05:21:40.678Z,11.70
2018-08-20T05:24:09.204Z,11.80
2018-08-20T05:26:38.463Z,11.80
2018-08-20T05:29:07.395Z,11.90
2018-08-20T05:31:37.099Z,11.80
2018-08-20T05:34:05.622Z,11.90
2018-08-20T05:36:34.896Z,12.00
2018-08-20T05:39:04.640Z,12.10
2018-08-20T05:41:33.740Z,12.20
2018-08-20T05:44:02.198Z,12.20
2018-08-20T05:46:31.477Z,12.20
2018-08-20T05:49:00.290Z,12.30
2018-08-20T05:51:28.994Z,12.50
2018-08-20T05:53:57.508Z,12.60
2018-08-20T05:56:26.044Z,12.70
2018-08-20T05:58:54.718Z,12.80
2018-08-20T06:01:23.243Z,13.00
2018-08-20T06:03:51.848Z,13.20
2018-08-20T06:06:20.427Z,13.30
2018-08-20T06:08:48.950Z,13.50
2018-08-20T06:11:17.542Z,13.70
2018-08-20T06:13:46.129Z,13.80
2018-08-20T06:16:14.745Z,14.00
2018-08-20T06:18:43.320Z,14.20
2018-08-20T06:21:11.830Z,14.40
2018-08-20T06:23:40.534Z,14.50
2018-08-20T06:26:09.103Z,14.70
2018-08-20T06:28:38.393Z,14.80
2018-08-20T06:31:07.569Z,14.90
2018-08-20T06:33:36.118Z,15.20
2018-08-20T06:36:04.629Z,15.40
2018-08-20T06:38:33.436Z,15.50
2018-08-20T06:41:02.296Z,15.50
2018-08-20T06:43:30.949Z,15.60
2018-08-20T06:45:59.530Z,15.70
2018-08-20T06:48:28.136Z,15.80
2018-08-20T06:50:57.336Z,16.00
2018-08-20T06:53:26.709Z,16.20
2018-08-20T06:55:55.958Z,16.30
2018-08-20T06:58:24.644Z,16.50
2018-08-20T07:00:53.293Z,16.60
2018-08-20T07:03:21.823Z,16.80
2018-08-20T07:05:50.364Z,16.90
2018-08-20T07:08:19.074Z,17.10
2018-08-20T07:10:48.577Z,17.30
2018-08-20T07:13:35.797Z,17.40
2018-08-20T07:16:05.148Z,17.50
2018-08-20T07:18:34.026Z,17.60
2018-08-20T07:21:02.836Z,17.80
2018-08-20T07:23:31.983Z,18.00
2018-08-20T07:26:00.447Z,18.10
2018-08-20T07:28:29.165Z,18.20
2018-08-20T07:30:58.589Z,18.30
2018-08-20T07:33:27.384Z,18.50
2018-08-20T07:35:55.957Z,18.70
2018-08-20T07:38:25.300Z,18.90
2018-08-20T07:40:54.535Z,19.00
2018-08-20T07:43:23.603Z,19.30
2018-08-20T07:45:52.999Z,19.40
2018-08-20T07:48:21.638Z,19.60
2018-08-20T07:50:50.912Z,19.80
2018-08-20T07:53:19.552Z,19.90
2018-08-20T07:55:48.156Z,20.10
2018-08-20T07:58:16.784Z,20.20
2018-08-20T08:00:45.315Z,20.50
2018-08-20T08:03:14.223Z,20.60
2018-08-20T08:05:42.825Z,20.90
2018-08-20T08:08:12.122Z,21.10
2018-08-20T08:10:41.261Z,21.20
2018-08-20T08:13:10.459Z,21.40
2018-08-20T08:15:39.844Z,21.50
2018-08-20T08:18:08.921Z,21.60
2018-08-20T08:20:37.992Z,21.70
2018-08-20T08:23:06.836Z,21.90
2018-08-20T08:25:35.792Z,22.00
2018-08-20T08:28:04.640Z,22.10
2018-08-20T08:30:34.084Z,22.20
2018-08-20T08:33:03.142Z,22.30
2018-08-20T08:35:31.728Z,22.50
2018-08-20T08:38:00.607Z,22.60
2018-08-20T08:40:29.259Z,22.70
2018-08-20T08:42:57.845Z,22.90
2018-08-20T08:45:26.488Z,23.10
2018-08-20T08:47:55.856Z,23.20
2018-08-20T08:50:24.550Z,23.30
2018-08-20T08:52:53.216Z,23.40
2018-08-20T08:55:21.867Z,23.50
2018-08-20T08:57:50.541Z,23.60
2018-08-20T09:00:20.849Z,23.80
2018-08-20T09:02:49.516Z,23.90
2018-08-20T09:05:18.203Z,23.80
2018-08-20T09:07:47.548Z,23.90
2018-08-20T09:10:16.415Z,24.00
2018-08-20T09:12:45.088Z,24.00
2018-08-20T09:15:16.502Z,24.20
2018-08-20T09:17:45.461Z,24.30
2018-08-20T09:20:15.411Z,24.50
2018-08-20T09:22:44.776Z,24.60
2018-08-20T09:25:14.302Z,24.70
2018-08-20T09:27:44.197Z,24.80
2018-08-20T09:30:22.814Z,24.90
2018-08-20T09:32:51.424Z,24.90
2018-08-20T09:35:20.029Z,24.90
2018-08-20T09:37:48.563Z,25.00
2018-08-20T09:40:17.128Z,25.10
2018-08-20T09:42:45.696Z,25.00
2018-08-20T09:45:14.624Z,24.80
2018-08-20T09:47:43.553Z,24.90
2018-08-20T09:50:14.240Z,25.10
2018-08-20T09:52:43.253Z,25.20
2018-08-20T09:55:11.788Z,25.20
2018-08-20T09:57:40.723Z,25.30
2018-08-20T10:00:12.836Z,25.20
2018-08-20T10:02:42.173Z,25.30
2018-08-20T10:05:11.489Z,25.40
2018-08-20T10:07:40.425Z,25.40
2018-08-20T10:10:09.399Z,25.30
2018-08-20T10:12:38.013Z,25.50
2018-08-20T10:15:06.641Z,25.50
2018-08-20T10:17:35.486Z,25.50
2018-08-20T10:20:06.590Z,25.80
2018-08-20T10:22:36.062Z,25.80
2018-08-20T10:25:05.069Z,25.60
2018-08-20T10:27:33.613Z,25.40
2018-08-20T10:30:02.532Z,25.40
2018-08-20T10:32:31.932Z,25.40
2018-08-20T10:35:01.239Z,25.60
2018-08-20T10:37:30.479Z,25.70
2018-08-20T10:39:59.003Z,25.90
2018-08-20T10:42:27.808Z,25.90
2018-08-20T10:45:01.894Z,26.00
2018-08-20T10:47:30.408Z,26.20
2018-08-20T10:49:59.267Z,26.50
2018-08-20T10:52:28.135Z,26.60
2018-08-20T10:54:57.173Z,26.60
2018-08-20T10:57:25.870Z,26.70
2018-08-20T10:59:54.432Z,26.50
2018-08-20T11:02:22.980Z,26.50
2018-08-20T11:04:54.682Z,26.70
2018-08-20T11:07:24.874Z,26.60
2018-08-20T11:09:53.643Z,26.40
2018-08-20T11:12:22.284Z,26.60
2018-08-20T11:14:50.856Z,26.90
2018-08-20T11:17:19.790Z,27.20
2018-08-20T11:19:49.124Z,27.30
2018-08-20T11:22:17.793Z,27.30
2018-08-20T11:24:46.597Z,27.20
2018-08-20T11:27:15.234Z,27.30
2018-08-20T11:29:44.001Z,27.20
2018-08-20T11:32:13.256Z,27.20
2018-08-20T11:34:42.008Z,27.10
2018-08-20T11:37:10.633Z,26.90
2018-08-20T11:39:39.292Z,26.70
2018-08-20T11:42:07.899Z,26.50
2018-08-20T11:44:36.940Z,26.20
2018-08-20T11:47:05.726Z,26.30
2018-08-20T11:49:35.535Z,26.50
2018-08-20T11:52:04.505Z,26.70
2018-08-20T11:54:34.258Z,27.20
2018-08-20T11:57:03.233Z,27.50
2018-08-20T11:59:31.763Z,27.70
2018-08-20T12:02:01.728Z,27.80
2018-08-20T12:04:31.045Z,27.80
2018-08-20T12:07:00.307Z,28.00
2018-08-20T12:09:28.927Z,28.20
2018-08-20T12:11:57.630Z,28.30
2018-08-20T12:14:26.961Z,28.40
2018-08-20T12:16:56.215Z,28.60
2018-08-20T12:19:25.026Z,28.70
2018-08-20T12:21:53.575Z,28.80
2018-08-20T12:24:23.156Z,28.60
2018-08-20T12:26:51.744Z,28.60
2018-08-20T12:29:20.462Z,28.80
2018-08-20T12:31:49.051Z,29.00
2018-08-20T12:34:18.006Z,29.00
2018-08-20T12:36:46.925Z,28.90
2018-08-20T12:39:16.329Z,29.00
2018-08-20T12:41:45.703Z,28.90
2018-08-20T12:44:14.362Z,29.10
2018-08-20T12:46:42.998Z,29.10
2018-08-20T12:49:11.824Z,29.10
2018-08-20T12:51:40.918Z,29.10
2018-08-20T12:54:09.592Z,29.10
2018-08-20T12:56:38.071Z,29.00
2018-08-20T12:59:06.684Z,28.90
2018-08-20T13:01:35.328Z,29.20
2018-08-20T13:04:03.917Z,29.40
2018-08-20T13:06:33.179Z,29.50
2018-08-20T13:09:01.846Z,29.70
2018-08-20T13:11:30.612Z,29.70
2018-08-20T13:13:59.428Z,29.50
2018-08-20T13:16:29.086Z,29.30
2018-08-20T13:18:57.673Z,29.30
2018-08-20T13:21:26.870Z,29.40
2018-08-20T13:23:55.461Z,29.40
2018-08-20T13:26:23.982Z,29.40
2018-08-20T13:28:52.873Z,29.40
2018-08-20T13:31:22.506Z,29.30
2018-08-20T13:33:51.253Z,29.20
2018-08-20T13:36:20.750Z,29.10
2018-08-20T13:38:50.021Z,29.50
2018-08-20T13:41:18.703Z,29.70
2018-08-20T13:43:47.591Z,30.00
2018-08-20T13:46:16.456Z,30.10
2018-08-20T13:48:45.717Z,30.40
2018-08-20T13:51:14.508Z,30.50
2018-08-20T13:53:44.091Z,30.80
2018-08-20T13:56:12.751Z,30.90
2018-08-20T13:58:41.347Z,31.10
2018-08-20T14:01:09.937Z,31.00
2018-08-20T14:03:39.068Z,31.00
2018-08-20T14:06:08.380Z,30.90
2018-08-20T14:08:37.125Z,30.70
2018-08-20T14:11:05.687Z,30.40
2018-08-20T14:13:34.337Z,29.80
2018-08-20T14:16:03.167Z,29.40
2018-08-20T14:18:32.051Z,29.10
2018-08-20T14:21:11.913Z,29.00
2018-08-20T14:23:43.846Z,29.10
2018-08-20T14:26:12.978Z,29.10
2018-08-20T14:28:42.601Z,28.90
2018-08-20T14:31:11.750Z,28.80
2018-08-20T14:33:40.998Z,28.50
2018-08-20T14:36:10.065Z,28.50
2018-08-20T14:38:38.613Z,28.40
2018-08-20T14:41:07.476Z,28.50
2018-08-20T14:43:36.218Z,28.40
2018-08-20T14:46:10.007Z,28.40
2018-08-20T14:48:39.326Z,28.80
2018-08-20T14:51:08.912Z,29.20
2018-08-20T14:53:38.084Z,29.20
2018-08-20T14:56:06.717Z,29.30
2018-08-20T14:58:35.353Z,29.80
2018-08-20T15:01:04.698Z,30.50
2018-08-20T15:03:34.294Z,30.60
2018-08-20T15:06:03.338Z,30.80
2018-08-20T15:08:31.927Z,31.20
2018-08-20T15:11:00.864Z,30.90
2018-08-20T15:13:30.481Z,31.00
2018-08-20T15:15:59.224Z,30.50
2018-08-20T15:18:28.118Z,31.00
2018-08-20T15:20:56.788Z,32.40
2018-08-20T15:23:25.432Z,33.70
2018-08-20T15:25:54.162Z,34.30
2018-08-20T15:28:22.657Z,34.70
2018-08-20T15:30:51.216Z,34.80
2018-08-20T15:33:19.808Z,35.00
2018-08-20T15:35:50.060Z,35.10
2018-08-20T15:38:18.584Z,35.00
2018-08-20T15:40:47.179Z,34.70
2018-08-20T15:43:15.895Z,34.90
2018-08-20T15:45:45.299Z,34.70
2018-08-20T15:48:13.833Z,35.10
2018-08-20T15:50:42.682Z,35.00
2018-08-20T15:53:11.291Z,33.70
2018-08-20T15:55:39.917Z,34.20
2018-08-20T15:58:08.594Z,34.00
2018-08-20T16:00:37.480Z,34.40
2018-08-20T16:03:06.636Z,34.80
2018-08-20T16:05:35.607Z,34.70
2018-08-20T16:08:04.490Z,34.90
2018-08-20T16:10:33.349Z,35.20
2018-08-20T16:13:01.980Z,34.90
2018-08-20T16:15:30.501Z,35.10
2018-08-20T16:17:59.033Z,36.10
2018-08-20T16:20:28.436Z,36.10
2018-08-20T16:22:57.363Z,35.40
2018-08-20T16:25:26.835Z,34.70
2018-08-20T16:27:56.034Z,35.20
2018-08-20T16:30:25.111Z,35.10
2018-08-20T16:32:53.897Z,34.40
2018-08-20T16:35:23.694Z,33.90
2018-08-20T16:37:52.703Z,33.70
2018-08-20T16:40:22.123Z,33.70
2018-08-20T16:42:50.951Z,33.40
2018-08-20T16:45:19.874Z,33.60
2018-08-20T16:47:48.860Z,33.20
2018-08-20T16:50:18.304Z,32.70
2018-08-20T16:52:47.210Z,32.30
2018-08-20T16:55:15.910Z,32.30
2018-08-20T16:57:44.833Z,32.50
2018-08-20T17:00:13.900Z,32.20
2018-08-20T17:02:43.374Z,32.10
2018-08-20T17:05:13.356Z,32.40
2018-08-20T17:07:42.493Z,31.90
2018-08-20T17:10:12.772Z,31.90
2018-08-20T17:12:41.884Z,32.10
2018-08-20T17:15:14.745Z,31.60
2018-08-20T17:17:43.343Z,31.30
2018-08-20T17:20:13.024Z,31.70
2018-08-20T17:22:43.025Z,31.80
2018-08-20T17:25:11.800Z,30.90
2018-08-20T17:27:42.419Z,30.80
2018-08-20T17:30:11.417Z,30.60
2018-08-20T17:32:40.421Z,30.70
2018-08-20T17:35:09.788Z,30.50
2018-08-20T17:37:38.772Z,29.80
2018-08-20T17:40:10.241Z,29.20
2018-08-20T17:42:38.798Z,28.50
2018-08-20T17:45:08.991Z,27.80
2018-08-20T17:47:39.447Z,27.20
2018-08-20T17:50:20.584Z,26.80
2018-08-20T17:52:49.415Z,26.40
2018-08-20T17:55:18.044Z,26.20
2018-08-20T17:57:47.443Z,26.00
2018-08-20T18:00:20.809Z,25.70
2018-08-20T18:02:49.359Z,25.70
2018-08-20T18:05:19.527Z,25.60
2018-08-20T18:07:48.182Z,25.50
2018-08-20T18:10:17.084Z,25.40
2018-08-20T18:12:45.719Z,25.20
2018-08-20T18:15:15.746Z,25.20
2018-08-20T18:17:45.059Z,25.00
2018-08-20T18:20:13.699Z,24.90
2018-08-20T18:22:42.691Z,24.70
2018-08-20T18:25:11.530Z,24.40
2018-08-20T18:27:44.371Z,24.00
2018-08-20T18:30:16.565Z,23.70
2018-08-20T18:32:45.612Z,23.30
2018-08-20T18:35:22.365Z,22.90
2018-08-20T18:37:51.959Z,22.60
2018-08-20T18:40:20.760Z,22.40
2018-08-20T18:42:50.015Z,22.30
2018-08-20T18:45:18.861Z,22.10
2018-08-20T18:47:47.513Z,21.90
2018-08-20T18:50:16.120Z,21.80
2018-08-20T18:52:45.005Z,21.60
2018-08-20T18:55:15.219Z,21.40
2018-08-20T18:57:44.243Z,21.30
2018-08-20T19:00:14.359Z,21.10
2018-08-20T19:02:47.824Z,20.90
2018-08-20T19:05:17.664Z,20.80
2018-08-20T19:07:46.672Z,20.70
2018-08-20T19:10:27.145Z,20.70
2018-08-20T19:12:56.229Z,20.50
2018-08-20T19:15:41.173Z,20.40
2018-08-20T19:18:11.962Z,20.30
2018-08-20T19:20:41.843Z,20.10
2018-08-20T19:23:10.936Z,19.90
2018-08-20T19:25:39.931Z,19.80
2018-08-20T19:28:22.152Z,19.60
2018-08-20T19:30:51.938Z,19.60
2018-08-20T19:33:25.825Z,19.50
2018-08-20T19:35:54.998Z,19.50
2018-08-20T19:38:23.754Z,19.30
2018-08-20T19:41:04.212Z,19.20
2018-08-20T19:43:37.189Z,19.10
2018-08-20T19:46:05.967Z,18.90
2018-08-20T19:48:34.558Z,19.00
2018-08-20T19:51:06.547Z,18.80
2018-08-20T19:53:35.234Z,18.80
2018-08-20T19:56:04.843Z,18.80
2018-08-20T19:58:34.654Z,18.80
2018-08-20T20:01:12.920Z,18.70
2018-08-20T20:03:43.420Z,18.70
2018-08-20T20:06:12.376Z,18.70
2018-08-20T20:08:41.236Z,18.70
2018-08-20T20:11:16.952Z,18.50
2018-08-20T20:13:46.577Z,18.30
2018-08-20T20:16:15.115Z,18.10
2018-08-20T20:18:43.996Z,18.00
2018-08-20T20:21:12.942Z,18.00
2018-08-20T20:23:41.869Z,17.90
2018-08-20T20:26:10.922Z,17.80
2018-08-20T20:28:40.267Z,17.80
2018-08-20T20:31:09.478Z,17.80
2018-08-20T20:33:38.399Z,17.70
2018-08-20T20:36:11.115Z,17.70
2018-08-20T20:38:40.038Z,17.70
2018-08-20T20:41:09.409Z,17.70
2018-08-20T20:43:39.711Z,17.60
2018-08-20T20:46:09.999Z,17.60
2018-08-20T20:48:39.115Z,17.50
2018-08-20T20:51:08.012Z,17.50
2018-08-20T20:53:37.468Z,17.50
2018-08-20T20:56:06.061Z,17.40
2018-08-20T20:58:36.064Z,17.20
2018-08-20T21:01:06.306Z,17.20
2018-08-20T21:03:35.389Z,17.10
2018-08-20T21:06:04.758Z,17.10
2018-08-20T21:08:39.582Z,17.00
2018-08-20T21:11:09.128Z,16.90
2018-08-20T21:13:38.284Z,16.90
2018-08-20T21:16:09.084Z,16.80
2018-08-20T21:18:59.097Z,16.80
2018-08-20T21:21:29.029Z,16.80
2018-08-20T21:23:58.019Z,16.80
2018-08-20T21:26:27.457Z,16.70
2018-08-20T21:28:56.591Z,16.60
2018-08-20T21:31:26.870Z,16.60
2018-08-20T21:33:59.213Z,16.50
2018-08-20T21:36:27.968Z,16.50
2018-08-20T21:38:56.571Z,16.40
2018-08-20T21:41:27.111Z,16.30
2018-08-20T21:43:55.743Z,16.40
2018-08-20T21:46:25.088Z,16.40
2018-08-20T21:48:54.071Z,16.40
2018-08-20T21:51:25.180Z,16.30
2018-08-20T21:53:53.779Z,16.30
2018-08-20T21:56:22.665Z,16.30
2018-08-20T21:58:51.200Z,16.20
2018-08-20T22:01:20.377Z,16.20
2018-08-20T22:03:49.047Z,16.20
2018-08-20T22:06:17.640Z,16.10
2018-08-20T22:08:46.152Z,16.00
2018-08-20T22:11:14.822Z,16.00
2018-08-20T22:13:43.621Z,15.90
2018-08-20T22:16:21.794Z,15.90
2018-08-20T22:18:56.125Z,15.90
2018-08-20T22:21:25.000Z,15.80
2018-08-20T22:24:01.652Z,15.80
2018-08-20T22:26:30.248Z,15.80
2018-08-20T22:28:59.603Z,15.70
2018-08-20T22:31:28.644Z,15.70
2018-08-20T22:34:02.784Z,15.70
2018-08-20T22:36:32.262Z,15.60
2018-08-20T22:39:02.064Z,15.60
2018-08-20T22:41:31.816Z,15.60
2018-08-20T22:44:00.329Z,15.60
2018-08-20T22:46:29.441Z,15.60
2018-08-20T22:48:59.354Z,15.60
2018-08-20T22:51:28.972Z,15.50
2018-08-20T22:53:59.338Z,15.50
2018-08-20T22:56:31.775Z,15.50
2018-08-20T22:59:02.635Z,15.50
2018-08-20T23:01:31.343Z,15.60
2018-08-20T23:04:00.085Z,15.50
2018-08-20T23:06:28.612Z,15.40
2018-08-20T23:08:57.115Z,15.30
2018-08-20T23:11:39.145Z,15.30
2018-08-20T23:14:09.524Z,15.20
2018-08-20T23:16:38.429Z,15.10
2018-08-20T23:19:07.465Z,15.10
2018-08-20T23:21:40.750Z,15.10
2018-08-20T23:24:09.998Z,15.20
2018-08-20T23:26:38.580Z,15.10
2018-08-20T23:29:07.237Z,15.10
2018-08-20T23:31:35.945Z,15.10
2018-08-20T23:34:08.440Z,15.10
2018-08-20T23:36:37.538Z,15.10
2018-08-20T23:39:08.228Z,15.10
2018-08-20T23:41:37.066Z,15.10
2018-08-20T23:44:06.543Z,15.10
2018-08-20T23:46:43.939Z,15.20
2018-08-20T23:49:12.525Z,15.20
2018-08-20T23:51:41.188Z,15.30
2018-08-20T23:54:10.979Z,15.30
2018-08-20T23:56:39.907Z,15.40
2018-08-20T23:59:08.761Z,15.40
